sensor_id;sensor_type;location;lat;lon;timestamp;P1;durP1;ratioP1;P2;durP2;ratioP2
12214;SDS011;6170;42.206;24.142;2023-02-01T00:02:06;3.88;;;2.50;;
12214;SDS011;6170;42.206;24.142;2023-02-01T00:04:33;4.63;;;2.25;;
12214;SDS011;6170;42.206;24.142;2023-02-01T00:06:59;3.53;;;2.65;;
12214;SDS011;6170;42.206;24.142;2023-02-01T00:09:28;5.72;;;2.70;;
12214;SDS011;6170;42.206;24.142;2023-02-01T00:11:55;4.07;;;2.53;;
12214;SDS011;6170;42.206;24.142;2023-02-01T00:14:24;4.78;;;2.53;;
12214;SDS011;6170;42.206;24.142;2023-02-01T00:16:51;2.95;;;2.10;;
12214;SDS011;6170;42.206;24.142;2023-02-01T00:19:18;3.47;;;2.50;;
12214;SDS011;6170;42.206;24.142;2023-02-01T00:21:45;6.70;;;2.40;;
12214;SDS011;6170;42.206;24.142;2023-02-01T00:24:12;4.88;;;2.67;;
12214;SDS011;6170;42.206;24.142;2023-02-01T00:26:41;3.78;;;2.33;;
12214;SDS011;6170;42.206;24.142;2023-02-01T00:29:10;4.15;;;2.65;;
12214;SDS011;6170;42.206;24.142;2023-02-01T00:31:39;6.85;;;2.50;;
12214;SDS011;6170;42.206;24.142;2023-02-01T00:34:06;4.25;;;2.38;;
12214;SDS011;6170;42.206;24.142;2023-02-01T00:36:34;6.30;;;2.70;;
12214;SDS011;6170;42.206;24.142;2023-02-01T00:39:00;5.25;;;3.08;;
12214;SDS011;6170;42.206;24.142;2023-02-01T00:41:27;5.18;;;2.50;;
12214;SDS011;6170;42.206;24.142;2023-02-01T00:43:55;4.30;;;2.40;;
12214;SDS011;6170;42.206;24.142;2023-02-01T00:46:22;4.63;;;1.98;;
12214;SDS011;6170;42.206;24.142;2023-02-01T00:48:49;3.70;;;2.40;;
12214;SDS011;6170;42.206;24.142;2023-02-01T00:51:17;2.60;;;2.10;;
12214;SDS011;6170;42.206;24.142;2023-02-01T00:53:47;3.58;;;1.85;;
12214;SDS011;6170;42.206;24.142;2023-02-01T00:56:14;3.75;;;2.10;;
12214;SDS011;6170;42.206;24.142;2023-02-01T00:58:41;4.05;;;2.22;;
12214;SDS011;6170;42.206;24.142;2023-02-01T01:01:10;2.75;;;2.00;;
12214;SDS011;6170;42.206;24.142;2023-02-01T01:03:39;3.50;;;2.05;;
12214;SDS011;6170;42.206;24.142;2023-02-01T01:06:08;3.22;;;2.35;;
12214;SDS011;6170;42.206;24.142;2023-02-01T01:08:36;4.22;;;2.20;;
12214;SDS011;6170;42.206;24.142;2023-02-01T01:11:04;3.10;;;2.17;;
12214;SDS011;6170;42.206;24.142;2023-02-01T01:13:32;3.88;;;2.47;;
12214;SDS011;6170;42.206;24.142;2023-02-01T01:15:59;5.40;;;2.63;;
12214;SDS011;6170;42.206;24.142;2023-02-01T01:18:29;4.28;;;2.38;;
12214;SDS011;6170;42.206;24.142;2023-02-01T01:20:57;3.90;;;2.28;;
12214;SDS011;6170;42.206;24.142;2023-02-01T01:23:24;5.65;;;2.20;;
12214;SDS011;6170;42.206;24.142;2023-02-01T01:25:51;3.20;;;2.28;;
12214;SDS011;6170;42.206;24.142;2023-02-01T01:28:18;5.53;;;2.78;;
12214;SDS011;6170;42.206;24.142;2023-02-01T01:30:45;3.38;;;2.10;;
12214;SDS011;6170;42.206;24.142;2023-02-01T01:33:13;5.03;;;2.58;;
12214;SDS011;6170;42.206;24.142;2023-02-01T01:35:41;3.08;;;2.15;;
12214;SDS011;6170;42.206;24.142;2023-02-01T01:38:09;4.80;;;2.33;;
12214;SDS011;6170;42.206;24.142;2023-02-01T01:40:36;3.28;;;2.03;;
12214;SDS011;6170;42.206;24.142;2023-02-01T01:43:05;5.60;;;2.38;;
12214;SDS011;6170;42.206;24.142;2023-02-01T01:45:39;7.07;;;2.30;;
12214;SDS011;6170;42.206;24.142;2023-02-01T01:48:07;5.50;;;2.58;;
12214;SDS011;6170;42.206;24.142;2023-02-01T01:50:39;5.07;;;2.55;;
12214;SDS011;6170;42.206;24.142;2023-02-01T01:53:13;4.65;;;2.75;;
12214;SDS011;6170;42.206;24.142;2023-02-01T01:55:44;8.93;;;4.28;;
12214;SDS011;6170;42.206;24.142;2023-02-01T01:58:14;8.73;;;4.15;;
12214;SDS011;6170;42.206;24.142;2023-02-01T02:00:45;18.00;;;5.47;;
12214;SDS011;6170;42.206;24.142;2023-02-01T02:03:14;9.23;;;3.50;;
12214;SDS011;6170;42.206;24.142;2023-02-01T02:05:45;5.28;;;3.58;;
12214;SDS011;6170;42.206;24.142;2023-02-01T02:08:15;4.22;;;3.58;;
12214;SDS011;6170;42.206;24.142;2023-02-01T02:10:43;6.65;;;3.42;;
12214;SDS011;6170;42.206;24.142;2023-02-01T02:13:29;5.38;;;3.08;;
12214;SDS011;6170;42.206;24.142;2023-02-01T02:16:03;6.25;;;2.92;;
12214;SDS011;6170;42.206;24.142;2023-02-01T02:18:38;6.13;;;2.75;;
12214;SDS011;6170;42.206;24.142;2023-02-01T02:21:15;4.75;;;3.15;;
12214;SDS011;6170;42.206;24.142;2023-02-01T02:23:58;4.35;;;3.03;;
12214;SDS011;6170;42.206;24.142;2023-02-01T02:26:55;7.55;;;4.15;;
12214;SDS011;6170;42.206;24.142;2023-02-01T02:29:34;5.75;;;3.65;;
12214;SDS011;6170;42.206;24.142;2023-02-01T02:32:44;7.75;;;4.45;;
12214;SDS011;6170;42.206;24.142;2023-02-01T02:35:26;28.10;;;10.70;;
12214;SDS011;6170;42.206;24.142;2023-02-01T02:38:01;7.05;;;4.30;;
12214;SDS011;6170;42.206;24.142;2023-02-01T02:40:41;8.55;;;4.35;;
12214;SDS011;6170;42.206;24.142;2023-02-01T02:43:17;7.35;;;3.58;;
12214;SDS011;6170;42.206;24.142;2023-02-01T02:46:06;6.00;;;3.70;;
12214;SDS011;6170;42.206;24.142;2023-02-01T02:49:00;4.85;;;3.30;;
12214;SDS011;6170;42.206;24.142;2023-02-01T02:51:34;7.40;;;4.53;;
12214;SDS011;6170;42.206;24.142;2023-02-01T02:54:24;7.10;;;4.03;;
12214;SDS011;6170;42.206;24.142;2023-02-01T02:57:13;6.00;;;3.70;;
12214;SDS011;6170;42.206;24.142;2023-02-01T03:00:02;6.45;;;3.83;;
12214;SDS011;6170;42.206;24.142;2023-02-01T03:02:50;8.52;;;5.30;;
12214;SDS011;6170;42.206;24.142;2023-02-01T03:05:36;11.98;;;6.68;;
12214;SDS011;6170;42.206;24.142;2023-02-01T03:08:11;6.60;;;4.88;;
12214;SDS011;6170;42.206;24.142;2023-02-01T03:10:50;7.78;;;4.13;;
12214;SDS011;6170;42.206;24.142;2023-02-01T03:13:24;8.18;;;5.07;;
12214;SDS011;6170;42.206;24.142;2023-02-01T03:15:58;6.13;;;4.32;;
12214;SDS011;6170;42.206;24.142;2023-02-01T03:18:32;4.78;;;3.47;;
12214;SDS011;6170;42.206;24.142;2023-02-01T03:21:04;4.78;;;3.20;;
12214;SDS011;6170;42.206;24.142;2023-02-01T03:23:36;5.28;;;3.58;;
12214;SDS011;6170;42.206;24.142;2023-02-01T03:26:04;5.57;;;3.17;;
12214;SDS011;6170;42.206;24.142;2023-02-01T03:28:33;5.18;;;3.00;;
12214;SDS011;6170;42.206;24.142;2023-02-01T03:31:02;8.48;;;3.30;;
12214;SDS011;6170;42.206;24.142;2023-02-01T03:33:29;4.70;;;2.78;;
12214;SDS011;6170;42.206;24.142;2023-02-01T03:36:00;4.57;;;3.10;;
12214;SDS011;6170;42.206;24.142;2023-02-01T03:38:33;5.75;;;3.15;;
12214;SDS011;6170;42.206;24.142;2023-02-01T03:41:10;4.60;;;2.72;;
12214;SDS011;6170;42.206;24.142;2023-02-01T03:43:47;5.72;;;3.38;;
12214;SDS011;6170;42.206;24.142;2023-02-01T03:46:21;4.43;;;2.72;;
12214;SDS011;6170;42.206;24.142;2023-02-01T03:48:52;6.38;;;2.72;;
12214;SDS011;6170;42.206;24.142;2023-02-01T03:51:21;4.35;;;2.83;;
12214;SDS011;6170;42.206;24.142;2023-02-01T03:53:52;6.85;;;3.67;;
12214;SDS011;6170;42.206;24.142;2023-02-01T03:56:21;8.23;;;3.50;;
12214;SDS011;6170;42.206;24.142;2023-02-01T03:58:51;5.40;;;2.78;;
12214;SDS011;6170;42.206;24.142;2023-02-01T04:01:25;4.57;;;2.78;;
12214;SDS011;6170;42.206;24.142;2023-02-01T04:03:53;2.97;;;2.50;;
12214;SDS011;6170;42.206;24.142;2023-02-01T04:06:20;3.88;;;2.70;;
12214;SDS011;6170;42.206;24.142;2023-02-01T04:08:47;12.35;;;5.57;;
12214;SDS011;6170;42.206;24.142;2023-02-01T04:11:15;3.92;;;2.40;;
12214;SDS011;6170;42.206;24.142;2023-02-01T04:13:42;4.55;;;2.22;;
12214;SDS011;6170;42.206;24.142;2023-02-01T04:16:09;3.15;;;2.08;;
12214;SDS011;6170;42.206;24.142;2023-02-01T04:18:36;3.20;;;2.10;;
12214;SDS011;6170;42.206;24.142;2023-02-01T04:21:03;5.35;;;2.60;;
12214;SDS011;6170;42.206;24.142;2023-02-01T04:23:30;14.30;;;2.92;;
12214;SDS011;6170;42.206;24.142;2023-02-01T04:26:01;4.88;;;2.33;;
12214;SDS011;6170;42.206;24.142;2023-02-01T04:28:30;4.18;;;2.03;;
12214;SDS011;6170;42.206;24.142;2023-02-01T04:30:57;3.28;;;2.38;;
12214;SDS011;6170;42.206;24.142;2023-02-01T04:33:24;4.65;;;2.40;;
12214;SDS011;6170;42.206;24.142;2023-02-01T04:35:51;5.18;;;2.78;;
12214;SDS011;6170;42.206;24.142;2023-02-01T04:38:17;4.65;;;2.58;;
12214;SDS011;6170;42.206;24.142;2023-02-01T04:40:46;4.97;;;2.20;;
12214;SDS011;6170;42.206;24.142;2023-02-01T04:43:13;5.25;;;2.70;;
12214;SDS011;6170;42.206;24.142;2023-02-01T04:45:41;3.25;;;2.13;;
12214;SDS011;6170;42.206;24.142;2023-02-01T04:48:13;4.85;;;2.22;;
12214;SDS011;6170;42.206;24.142;2023-02-01T04:50:40;4.30;;;2.20;;
12214;SDS011;6170;42.206;24.142;2023-02-01T04:53:06;4.43;;;2.28;;
12214;SDS011;6170;42.206;24.142;2023-02-01T04:55:33;4.57;;;2.53;;
12214;SDS011;6170;42.206;24.142;2023-02-01T04:58:00;5.50;;;2.50;;
12214;SDS011;6170;42.206;24.142;2023-02-01T05:00:27;4.35;;;2.38;;
12214;SDS011;6170;42.206;24.142;2023-02-01T05:02:55;4.40;;;2.60;;
12214;SDS011;6170;42.206;24.142;2023-02-01T05:05:22;3.95;;;2.55;;
12214;SDS011;6170;42.206;24.142;2023-02-01T05:07:48;4.65;;;2.78;;
12214;SDS011;6170;42.206;24.142;2023-02-01T05:10:15;4.88;;;1.83;;
12214;SDS011;6170;42.206;24.142;2023-02-01T05:12:42;4.07;;;2.00;;
12214;SDS011;6170;42.206;24.142;2023-02-01T05:15:26;4.95;;;2.00;;
12214;SDS011;6170;42.206;24.142;2023-02-01T05:17:55;3.25;;;2.20;;
12214;SDS011;6170;42.206;24.142;2023-02-01T05:20:21;6.07;;;2.80;;
12214;SDS011;6170;42.206;24.142;2023-02-01T05:22:49;5.60;;;2.83;;
12214;SDS011;6170;42.206;24.142;2023-02-01T05:25:16;7.78;;;3.30;;
12214;SDS011;6170;42.206;24.142;2023-02-01T05:27:44;11.38;;;5.35;;
12214;SDS011;6170;42.206;24.142;2023-02-01T05:30:11;7.88;;;3.30;;
12214;SDS011;6170;42.206;24.142;2023-02-01T05:32:38;16.40;;;6.53;;
12214;SDS011;6170;42.206;24.142;2023-02-01T05:35:07;10.32;;;4.43;;
12214;SDS011;6170;42.206;24.142;2023-02-01T05:37:34;15.25;;;4.85;;
12214;SDS011;6170;42.206;24.142;2023-02-01T05:40:01;11.52;;;5.00;;
12214;SDS011;6170;42.206;24.142;2023-02-01T05:42:28;6.60;;;3.88;;
12214;SDS011;6170;42.206;24.142;2023-02-01T05:44:54;10.95;;;4.50;;
12214;SDS011;6170;42.206;24.142;2023-02-01T05:47:21;10.55;;;4.32;;
12214;SDS011;6170;42.206;24.142;2023-02-01T05:49:48;23.83;;;9.10;;
12214;SDS011;6170;42.206;24.142;2023-02-01T05:52:16;31.77;;;10.48;;
12214;SDS011;6170;42.206;24.142;2023-02-01T05:54:44;28.85;;;10.93;;
12214;SDS011;6170;42.206;24.142;2023-02-01T05:57:11;21.33;;;8.80;;
12214;SDS011;6170;42.206;24.142;2023-02-01T05:59:39;36.95;;;13.80;;
12214;SDS011;6170;42.206;24.142;2023-02-01T06:02:06;20.67;;;9.20;;
12214;SDS011;6170;42.206;24.142;2023-02-01T06:04:33;19.38;;;9.02;;
12214;SDS011;6170;42.206;24.142;2023-02-01T06:07:00;5.53;;;3.45;;
12214;SDS011;6170;42.206;24.142;2023-02-01T06:09:28;5.82;;;2.97;;
12214;SDS011;6170;42.206;24.142;2023-02-01T06:11:55;8.50;;;3.08;;
12214;SDS011;6170;42.206;24.142;2023-02-01T06:14:22;6.00;;;2.60;;
12214;SDS011;6170;42.206;24.142;2023-02-01T06:16:49;5.43;;;2.63;;
12214;SDS011;6170;42.206;24.142;2023-02-01T06:19:16;5.65;;;4.00;;
12214;SDS011;6170;42.206;24.142;2023-02-01T06:21:43;19.08;;;7.47;;
12214;SDS011;6170;42.206;24.142;2023-02-01T06:24:10;42.35;;;16.08;;
12214;SDS011;6170;42.206;24.142;2023-02-01T06:26:38;28.80;;;12.98;;
12214;SDS011;6170;42.206;24.142;2023-02-01T06:29:05;12.65;;;6.90;;
12214;SDS011;6170;42.206;24.142;2023-02-01T06:31:32;5.68;;;3.47;;
12214;SDS011;6170;42.206;24.142;2023-02-01T06:33:59;11.23;;;5.30;;
12214;SDS011;6170;42.206;24.142;2023-02-01T06:36:28;20.33;;;9.98;;
12214;SDS011;6170;42.206;24.142;2023-02-01T06:38:55;23.77;;;10.90;;
12214;SDS011;6170;42.206;24.142;2023-02-01T06:41:24;18.33;;;8.88;;
12214;SDS011;6170;42.206;24.142;2023-02-01T06:43:52;14.73;;;6.60;;
12214;SDS011;6170;42.206;24.142;2023-02-01T06:46:19;9.52;;;4.70;;
12214;SDS011;6170;42.206;24.142;2023-02-01T06:48:46;7.50;;;4.07;;
12214;SDS011;6170;42.206;24.142;2023-02-01T06:51:23;3.50;;;2.15;;
12214;SDS011;6170;42.206;24.142;2023-02-01T06:53:52;5.65;;;3.33;;
12214;SDS011;6170;42.206;24.142;2023-02-01T06:56:19;7.07;;;3.80;;
12214;SDS011;6170;42.206;24.142;2023-02-01T06:58:46;11.85;;;3.85;;
12214;SDS011;6170;42.206;24.142;2023-02-01T07:01:14;7.57;;;3.38;;
12214;SDS011;6170;42.206;24.142;2023-02-01T07:03:41;6.68;;;3.17;;
12214;SDS011;6170;42.206;24.142;2023-02-01T07:06:09;6.43;;;3.35;;
12214;SDS011;6170;42.206;24.142;2023-02-01T07:08:36;5.00;;;3.38;;
12214;SDS011;6170;42.206;24.142;2023-02-01T07:11:04;8.35;;;3.15;;
12214;SDS011;6170;42.206;24.142;2023-02-01T07:13:32;5.65;;;3.10;;
12214;SDS011;6170;42.206;24.142;2023-02-01T07:15:59;6.18;;;3.08;;
12214;SDS011;6170;42.206;24.142;2023-02-01T07:18:28;9.55;;;3.47;;
12214;SDS011;6170;42.206;24.142;2023-02-01T07:20:56;7.10;;;3.22;;
12214;SDS011;6170;42.206;24.142;2023-02-01T07:23:23;6.07;;;4.05;;
12214;SDS011;6170;42.206;24.142;2023-02-01T07:25:52;7.15;;;4.13;;
12214;SDS011;6170;42.206;24.142;2023-02-01T07:28:20;6.78;;;3.13;;
12214;SDS011;6170;42.206;24.142;2023-02-01T07:30:47;8.02;;;3.83;;
12214;SDS011;6170;42.206;24.142;2023-02-01T07:33:17;6.22;;;3.10;;
12214;SDS011;6170;42.206;24.142;2023-02-01T07:35:46;9.52;;;3.95;;
12214;SDS011;6170;42.206;24.142;2023-02-01T07:38:13;9.80;;;4.22;;
12214;SDS011;6170;42.206;24.142;2023-02-01T07:40:40;6.93;;;3.20;;
12214;SDS011;6170;42.206;24.142;2023-02-01T07:43:07;21.33;;;7.05;;
12214;SDS011;6170;42.206;24.142;2023-02-01T07:45:34;10.52;;;5.07;;
12214;SDS011;6170;42.206;24.142;2023-02-01T07:48:02;13.13;;;4.55;;
12214;SDS011;6170;42.206;24.142;2023-02-01T07:50:29;15.20;;;6.53;;
12214;SDS011;6170;42.206;24.142;2023-02-01T07:52:59;16.70;;;5.93;;
12214;SDS011;6170;42.206;24.142;2023-02-01T07:55:26;14.10;;;5.93;;
12214;SDS011;6170;42.206;24.142;2023-02-01T07:57:53;16.85;;;7.20;;
12214;SDS011;6170;42.206;24.142;2023-02-01T08:00:23;8.85;;;4.60;;
12214;SDS011;6170;42.206;24.142;2023-02-01T08:03:07;12.88;;;6.70;;
12214;SDS011;6170;42.206;24.142;2023-02-01T08:05:34;10.30;;;5.25;;
12214;SDS011;6170;42.206;24.142;2023-02-01T08:08:03;9.57;;;3.72;;
12214;SDS011;6170;42.206;24.142;2023-02-01T08:10:30;11.13;;;5.93;;
12214;SDS011;6170;42.206;24.142;2023-02-01T08:12:57;13.10;;;5.63;;
12214;SDS011;6170;42.206;24.142;2023-02-01T08:15:25;13.40;;;5.30;;
12214;SDS011;6170;42.206;24.142;2023-02-01T08:17:52;11.45;;;4.95;;
12214;SDS011;6170;42.206;24.142;2023-02-01T08:20:19;10.73;;;5.38;;
12214;SDS011;6170;42.206;24.142;2023-02-01T08:22:48;15.10;;;6.57;;
12214;SDS011;6170;42.206;24.142;2023-02-01T08:25:16;12.98;;;5.63;;
12214;SDS011;6170;42.206;24.142;2023-02-01T08:27:43;15.50;;;5.82;;
12214;SDS011;6170;42.206;24.142;2023-02-01T08:30:11;12.25;;;5.93;;
12214;SDS011;6170;42.206;24.142;2023-02-01T08:32:38;12.35;;;5.07;;
12214;SDS011;6170;42.206;24.142;2023-02-01T08:35:05;8.32;;;4.05;;
12214;SDS011;6170;42.206;24.142;2023-02-01T08:37:33;8.65;;;4.40;;
12214;SDS011;6170;42.206;24.142;2023-02-01T08:39:59;13.57;;;5.15;;
12214;SDS011;6170;42.206;24.142;2023-02-01T08:42:28;9.50;;;3.80;;
12214;SDS011;6170;42.206;24.142;2023-02-01T08:45:12;14.88;;;5.05;;
12214;SDS011;6170;42.206;24.142;2023-02-01T08:47:39;11.25;;;5.18;;
12214;SDS011;6170;42.206;24.142;2023-02-01T08:50:06;10.93;;;4.20;;
12214;SDS011;6170;42.206;24.142;2023-02-01T08:52:34;8.75;;;4.55;;
12214;SDS011;6170;42.206;24.142;2023-02-01T08:55:00;7.47;;;3.40;;
12214;SDS011;6170;42.206;24.142;2023-02-01T08:57:29;15.88;;;5.25;;
12214;SDS011;6170;42.206;24.142;2023-02-01T08:59:55;7.93;;;3.80;;
12214;SDS011;6170;42.206;24.142;2023-02-01T09:02:23;9.15;;;4.00;;
12214;SDS011;6170;42.206;24.142;2023-02-01T09:04:49;12.75;;;4.75;;
12214;SDS011;6170;42.206;24.142;2023-02-01T09:07:16;6.47;;;3.20;;
12214;SDS011;6170;42.206;24.142;2023-02-01T09:09:43;8.38;;;4.10;;
12214;SDS011;6170;42.206;24.142;2023-02-01T09:12:10;5.20;;;3.13;;
12214;SDS011;6170;42.206;24.142;2023-02-01T09:14:38;12.55;;;3.40;;
12214;SDS011;6170;42.206;24.142;2023-02-01T09:17:05;6.90;;;3.17;;
12214;SDS011;6170;42.206;24.142;2023-02-01T09:19:32;4.30;;;2.13;;
12214;SDS011;6170;42.206;24.142;2023-02-01T09:21:59;4.80;;;2.92;;
12214;SDS011;6170;42.206;24.142;2023-02-01T09:24:25;8.20;;;3.47;;
12214;SDS011;6170;42.206;24.142;2023-02-01T09:26:52;7.03;;;2.88;;
12214;SDS011;6170;42.206;24.142;2023-02-01T09:29:19;5.05;;;2.83;;
12214;SDS011;6170;42.206;24.142;2023-02-01T09:31:47;10.18;;;3.85;;
12214;SDS011;6170;42.206;24.142;2023-02-01T09:34:14;8.82;;;3.30;;
12214;SDS011;6170;42.206;24.142;2023-02-01T09:36:41;9.63;;;4.00;;
12214;SDS011;6170;42.206;24.142;2023-02-01T09:39:08;8.85;;;4.53;;
12214;SDS011;6170;42.206;24.142;2023-02-01T09:41:43;11.93;;;5.40;;
12214;SDS011;6170;42.206;24.142;2023-02-01T09:44:30;13.48;;;4.60;;
12214;SDS011;6170;42.206;24.142;2023-02-01T09:47:08;12.13;;;5.22;;
12214;SDS011;6170;42.206;24.142;2023-02-01T09:49:39;10.77;;;4.60;;
12214;SDS011;6170;42.206;24.142;2023-02-01T09:52:15;9.55;;;4.00;;
12214;SDS011;6170;42.206;24.142;2023-02-01T09:54:47;12.75;;;4.50;;
12214;SDS011;6170;42.206;24.142;2023-02-01T09:59:50;8.13;;;4.38;;
12214;SDS011;6170;42.206;24.142;2023-02-01T10:02:23;7.30;;;2.95;;
12214;SDS011;6170;42.206;24.142;2023-02-01T10:04:53;6.80;;;4.18;;
12214;SDS011;6170;42.206;24.142;2023-02-01T10:07:24;5.85;;;3.40;;
12214;SDS011;6170;42.206;24.142;2023-02-01T10:09:59;10.65;;;5.75;;
12214;SDS011;6170;42.206;24.142;2023-02-01T10:15:35;7.93;;;3.63;;
12214;SDS011;6170;42.206;24.142;2023-02-01T10:18:16;5.97;;;2.80;;
12214;SDS011;6170;42.206;24.142;2023-02-01T10:21:07;9.63;;;4.88;;
12214;SDS011;6170;42.206;24.142;2023-02-01T10:26:33;5.85;;;3.20;;
12214;SDS011;6170;42.206;24.142;2023-02-01T10:29:04;9.18;;;3.05;;
12214;SDS011;6170;42.206;24.142;2023-02-01T10:31:37;6.63;;;3.00;;
12214;SDS011;6170;42.206;24.142;2023-02-01T10:34:10;7.38;;;2.83;;
12214;SDS011;6170;42.206;24.142;2023-02-01T10:36:48;5.80;;;2.90;;
12214;SDS011;6170;42.206;24.142;2023-02-01T10:39:19;7.35;;;3.40;;
12214;SDS011;6170;42.206;24.142;2023-02-01T10:41:47;7.38;;;2.97;;
12214;SDS011;6170;42.206;24.142;2023-02-01T10:44:15;7.55;;;2.90;;
12214;SDS011;6170;42.206;24.142;2023-02-01T10:46:44;8.90;;;4.53;;
12214;SDS011;6170;42.206;24.142;2023-02-01T10:49:13;16.40;;;7.28;;
12214;SDS011;6170;42.206;24.142;2023-02-01T10:51:45;15.93;;;5.85;;
12214;SDS011;6170;42.206;24.142;2023-02-01T10:54:17;12.38;;;4.57;;
12214;SDS011;6170;42.206;24.142;2023-02-01T10:56:45;12.43;;;5.55;;
12214;SDS011;6170;42.206;24.142;2023-02-01T10:59:16;9.57;;;4.40;;
12214;SDS011;6170;42.206;24.142;2023-02-01T11:01:45;6.88;;;3.50;;
12214;SDS011;6170;42.206;24.142;2023-02-01T11:04:15;8.77;;;4.05;;
12214;SDS011;6170;42.206;24.142;2023-02-01T11:06:46;7.20;;;3.45;;
12214;SDS011;6170;42.206;24.142;2023-02-01T11:09:19;12.40;;;7.18;;
12214;SDS011;6170;42.206;24.142;2023-02-01T11:11:57;8.30;;;2.78;;
12214;SDS011;6170;42.206;24.142;2023-02-01T11:14:27;11.13;;;4.47;;
12214;SDS011;6170;42.206;24.142;2023-02-01T11:17:00;7.38;;;3.33;;
12214;SDS011;6170;42.206;24.142;2023-02-01T11:19:40;8.20;;;3.70;;
12214;SDS011;6170;42.206;24.142;2023-02-01T11:22:10;6.00;;;2.00;;
12214;SDS011;6170;42.206;24.142;2023-02-01T11:24:39;8.43;;;2.80;;
12214;SDS011;6170;42.206;24.142;2023-02-01T11:27:12;11.68;;;4.32;;
12214;SDS011;6170;42.206;24.142;2023-02-01T11:29:42;10.73;;;4.95;;
12214;SDS011;6170;42.206;24.142;2023-02-01T11:32:12;7.18;;;3.50;;
12214;SDS011;6170;42.206;24.142;2023-02-01T11:34:43;12.75;;;4.35;;
12214;SDS011;6170;42.206;24.142;2023-02-01T11:37:14;7.57;;;3.25;;
12214;SDS011;6170;42.206;24.142;2023-02-01T11:39:45;5.78;;;2.47;;
12214;SDS011;6170;42.206;24.142;2023-02-01T11:42:21;4.70;;;2.25;;
12214;SDS011;6170;42.206;24.142;2023-02-01T11:44:47;6.22;;;2.85;;
12214;SDS011;6170;42.206;24.142;2023-02-01T11:47:25;4.53;;;2.10;;
12214;SDS011;6170;42.206;24.142;2023-02-01T11:49:54;6.63;;;2.20;;
12214;SDS011;6170;42.206;24.142;2023-02-01T11:58:22;5.53;;;2.47;;
12214;SDS011;6170;42.206;24.142;2023-02-01T12:01:10;7.30;;;4.10;;
12214;SDS011;6170;42.206;24.142;2023-02-01T12:04:06;3.95;;;1.73;;
12214;SDS011;6170;42.206;24.142;2023-02-01T12:06:48;4.47;;;1.67;;
12214;SDS011;6170;42.206;24.142;2023-02-01T12:09:24;5.38;;;2.92;;
12214;SDS011;6170;42.206;24.142;2023-02-01T12:12:05;4.05;;;1.67;;
12214;SDS011;6170;42.206;24.142;2023-02-01T12:14:45;5.03;;;2.55;;
12214;SDS011;6170;42.206;24.142;2023-02-01T12:17:36;4.40;;;1.90;;
12214;SDS011;6170;42.206;24.142;2023-02-01T12:20:35;10.02;;;2.40;;
12214;SDS011;6170;42.206;24.142;2023-02-01T12:23:24;8.35;;;4.07;;
12214;SDS011;6170;42.206;24.142;2023-02-01T12:26:11;8.15;;;2.70;;
12214;SDS011;6170;42.206;24.142;2023-02-01T12:29:02;3.67;;;2.10;;
12214;SDS011;6170;42.206;24.142;2023-02-01T12:31:54;8.75;;;2.97;;
12214;SDS011;6170;42.206;24.142;2023-02-01T12:34:36;8.40;;;3.97;;
12214;SDS011;6170;42.206;24.142;2023-02-01T12:37:13;8.48;;;3.03;;
12214;SDS011;6170;42.206;24.142;2023-02-01T12:39:52;7.28;;;3.53;;
12214;SDS011;6170;42.206;24.142;2023-02-01T12:42:28;4.35;;;2.30;;
12214;SDS011;6170;42.206;24.142;2023-02-01T12:44:59;4.03;;;2.50;;
12214;SDS011;6170;42.206;24.142;2023-02-01T12:47:36;8.57;;;4.75;;
12214;SDS011;6170;42.206;24.142;2023-02-01T12:50:12;3.70;;;2.10;;
12214;SDS011;6170;42.206;24.142;2023-02-01T12:52:47;4.97;;;2.60;;
12214;SDS011;6170;42.206;24.142;2023-02-01T12:55:20;8.40;;;3.90;;
12214;SDS011;6170;42.206;24.142;2023-02-01T12:57:50;4.45;;;2.50;;
12214;SDS011;6170;42.206;24.142;2023-02-01T13:00:23;5.88;;;3.00;;
12214;SDS011;6170;42.206;24.142;2023-02-01T13:02:59;6.13;;;3.78;;
12214;SDS011;6170;42.206;24.142;2023-02-01T13:05:34;10.38;;;3.70;;
12214;SDS011;6170;42.206;24.142;2023-02-01T13:08:16;10.05;;;4.82;;
12214;SDS011;6170;42.206;24.142;2023-02-01T13:10:51;7.72;;;2.78;;
12214;SDS011;6170;42.206;24.142;2023-02-01T13:13:25;15.10;;;3.05;;
12214;SDS011;6170;42.206;24.142;2023-02-01T13:15:58;5.65;;;3.00;;
12214;SDS011;6170;42.206;24.142;2023-02-01T13:18:34;10.45;;;4.03;;
12214;SDS011;6170;42.206;24.142;2023-02-01T13:21:05;7.53;;;2.33;;
12214;SDS011;6170;42.206;24.142;2023-02-01T13:23:37;9.55;;;4.30;;
12214;SDS011;6170;42.206;24.142;2023-02-01T13:26:07;4.47;;;1.83;;
12214;SDS011;6170;42.206;24.142;2023-02-01T13:28:40;6.18;;;2.20;;
12214;SDS011;6170;42.206;24.142;2023-02-01T13:31:22;3.63;;;1.40;;
12214;SDS011;6170;42.206;24.142;2023-02-01T13:37:27;7.38;;;3.88;;
12214;SDS011;6170;42.206;24.142;2023-02-01T13:40:10;2.67;;;1.45;;
12214;SDS011;6170;42.206;24.142;2023-02-01T13:42:50;3.70;;;1.70;;
12214;SDS011;6170;42.206;24.142;2023-02-01T13:45:19;2.83;;;1.85;;
12214;SDS011;6170;42.206;24.142;2023-02-01T13:47:48;5.65;;;1.90;;
12214;SDS011;6170;42.206;24.142;2023-02-01T13:50:20;2.58;;;1.50;;
12214;SDS011;6170;42.206;24.142;2023-02-01T13:55:32;3.95;;;1.58;;
12214;SDS011;6170;42.206;24.142;2023-02-01T13:58:09;7.30;;;2.83;;
12214;SDS011;6170;42.206;24.142;2023-02-01T14:00:42;9.48;;;4.40;;
12214;SDS011;6170;42.206;24.142;2023-02-01T14:03:20;7.55;;;2.78;;
12214;SDS011;6170;42.206;24.142;2023-02-01T14:05:54;7.20;;;2.80;;
12214;SDS011;6170;42.206;24.142;2023-02-01T14:08:46;4.40;;;1.90;;
12214;SDS011;6170;42.206;24.142;2023-02-01T14:11:38;5.28;;;1.92;;
12214;SDS011;6170;42.206;24.142;2023-02-01T14:23:17;6.47;;;2.90;;
12214;SDS011;6170;42.206;24.142;2023-02-01T14:25:47;5.22;;;2.38;;
12214;SDS011;6170;42.206;24.142;2023-02-01T14:28:28;4.10;;;1.85;;
12214;SDS011;6170;42.206;24.142;2023-02-01T14:30:57;4.95;;;2.05;;
12214;SDS011;6170;42.206;24.142;2023-02-01T14:33:25;5.93;;;2.17;;
12214;SDS011;6170;42.206;24.142;2023-02-01T14:35:59;6.95;;;2.53;;
12214;SDS011;6170;42.206;24.142;2023-02-01T14:38:30;7.50;;;2.75;;
12214;SDS011;6170;42.206;24.142;2023-02-01T14:41:16;6.15;;;2.67;;
12214;SDS011;6170;42.206;24.142;2023-02-01T14:49:54;3.60;;;1.65;;
12214;SDS011;6170;42.206;24.142;2023-02-01T14:52:28;5.05;;;2.38;;
12214;SDS011;6170;42.206;24.142;2023-02-01T14:55:00;4.10;;;2.25;;
12214;SDS011;6170;42.206;24.142;2023-02-01T14:57:31;2.67;;;1.77;;
12214;SDS011;6170;42.206;24.142;2023-02-01T15:00:20;4.20;;;2.10;;
12214;SDS011;6170;42.206;24.142;2023-02-01T15:02:49;5.97;;;2.50;;
12214;SDS011;6170;42.206;24.142;2023-02-01T15:08:11;7.50;;;3.45;;
12214;SDS011;6170;42.206;24.142;2023-02-01T15:10:43;6.88;;;3.10;;
12214;SDS011;6170;42.206;24.142;2023-02-01T15:13:18;12.70;;;2.67;;
12214;SDS011;6170;42.206;24.142;2023-02-01T15:15:59;8.93;;;3.33;;
12214;SDS011;6170;42.206;24.142;2023-02-01T15:18:26;11.60;;;4.85;;
12214;SDS011;6170;42.206;24.142;2023-02-01T15:20:57;8.63;;;4.72;;
12214;SDS011;6170;42.206;24.142;2023-02-01T15:23:24;5.40;;;2.75;;
12214;SDS011;6170;42.206;24.142;2023-02-01T15:25:51;7.93;;;3.50;;
12214;SDS011;6170;42.206;24.142;2023-02-01T15:28:18;7.55;;;3.90;;
12214;SDS011;6170;42.206;24.142;2023-02-01T15:30:55;8.13;;;4.18;;
12214;SDS011;6170;42.206;24.142;2023-02-01T15:33:23;5.43;;;3.38;;
12214;SDS011;6170;42.206;24.142;2023-02-01T15:35:51;7.43;;;3.47;;
12214;SDS011;6170;42.206;24.142;2023-02-01T15:38:32;11.65;;;5.10;;
12214;SDS011;6170;42.206;24.142;2023-02-01T15:41:02;6.85;;;3.03;;
12214;SDS011;6170;42.206;24.142;2023-02-01T15:43:33;12.05;;;5.90;;
12214;SDS011;6170;42.206;24.142;2023-02-01T15:46:06;6.88;;;3.65;;
12214;SDS011;6170;42.206;24.142;2023-02-01T15:48:36;5.68;;;2.67;;
12214;SDS011;6170;42.206;24.142;2023-02-01T15:51:11;7.28;;;3.65;;